createdAt,value
2019-02-08T00:01:10.093Z,6.40
2019-02-08T00:03:38.776Z,6.30
2019-02-08T00:06:07.370Z,6.30
2019-02-08T00:08:35.963Z,6.30
2019-02-08T00:11:04.880Z,6.20
2019-02-08T00:13:33.531Z,6.20
2019-02-08T00:16:02.127Z,6.20
2019-02-08T00:18:30.710Z,6.10
2019-02-08T00:20:59.313Z,6.00
2019-02-08T00:23:27.892Z,6.00
2019-02-08T00:25:56.471Z,6.00
2019-02-08T00:28:25.042Z,5.90
2019-02-08T00:30:53.617Z,5.90
2019-02-08T00:33:22.195Z,5.90
2019-02-08T00:35:51.124Z,5.90
2019-02-08T00:38:22.321Z,5.90
2019-02-08T00:40:50.938Z,5.80
2019-02-08T00:43:19.553Z,5.90
2019-02-08T00:45:48.442Z,5.80
2019-02-08T00:48:17.033Z,5.80
2019-02-08T00:50:45.620Z,5.80
2019-02-08T00:53:14.211Z,5.80
2019-02-08T00:55:43.091Z,5.80
2019-02-08T00:58:11.709Z,5.80
2019-02-08T01:00:40.338Z,5.80
2019-02-08T01:03:08.920Z,5.80
2019-02-08T01:05:37.784Z,5.80
2019-02-08T01:08:06.348Z,5.80
2019-02-08T01:10:34.943Z,5.80
2019-02-08T01:13:03.512Z,5.80
2019-02-08T01:15:32.127Z,5.90
2019-02-08T01:18:00.735Z,5.90
2019-02-08T01:20:29.621Z,5.90
2019-02-08T01:22:58.187Z,5.90
2019-02-08T01:25:26.808Z,5.90
2019-02-08T01:27:55.687Z,5.90
2019-02-08T01:30:25.747Z,5.90
2019-02-08T01:32:54.308Z,5.90
2019-02-08T01:35:23.503Z,5.90
2019-02-08T01:37:52.135Z,5.90
2019-02-08T01:40:22.928Z,5.90
2019-02-08T01:42:51.514Z,5.90
2019-02-08T01:45:21.715Z,5.80
2019-02-08T01:47:50.341Z,5.80
2019-02-08T01:50:21.239Z,5.80
2019-02-08T01:52:49.811Z,5.80
2019-02-08T01:55:18.419Z,5.80
2019-02-08T01:57:51.087Z,5.90
2019-02-08T02:00:22.224Z,6.00
2019-02-08T02:02:50.820Z,6.00
2019-02-08T02:05:19.385Z,6.10
2019-02-08T02:07:48.176Z,6.20
2019-02-08T02:10:43.008Z,6.30
2019-02-08T02:13:11.904Z,6.30
2019-02-08T02:15:40.521Z,6.30
2019-02-08T02:18:28.416Z,6.30
2019-02-08T02:20:57.056Z,6.40
2019-02-08T02:23:25.637Z,6.40
2019-02-08T02:25:54.232Z,6.40
2019-02-08T02:28:22.819Z,6.50
2019-02-08T02:30:51.392Z,6.50
2019-02-08T02:33:20.430Z,6.50
2019-02-08T02:35:49.352Z,6.50
2019-02-08T02:38:17.950Z,6.50
2019-02-08T02:40:46.583Z,6.50
2019-02-08T02:43:15.204Z,6.60
2019-02-08T02:45:43.783Z,6.60
2019-02-08T02:48:13.728Z,6.70
2019-02-08T02:50:42.393Z,6.70
2019-02-08T02:53:10.991Z,6.70
2019-02-08T02:55:39.600Z,6.70
2019-02-08T02:58:08.177Z,6.80
2019-02-08T03:00:47.569Z,6.70
2019-02-08T03:03:17.161Z,6.80
2019-02-08T03:05:45.942Z,6.80
2019-02-08T03:08:15.952Z,6.80
2019-02-08T03:10:44.567Z,6.80
2019-02-08T03:13:13.233Z,6.80
2019-02-08T03:15:41.881Z,6.80
2019-02-08T03:18:10.454Z,6.80
2019-02-08T03:20:39.064Z,6.80
2019-02-08T03:23:07.660Z,6.80
2019-02-08T03:25:36.242Z,6.90
2019-02-08T03:28:05.039Z,6.90
2019-02-08T03:30:43.656Z,6.80
2019-02-08T03:33:12.321Z,6.90
2019-02-08T03:35:40.937Z,6.90
2019-02-08T03:38:09.525Z,7.00
2019-02-08T03:40:38.129Z,7.00
2019-02-08T03:43:08.147Z,7.00
2019-02-08T03:45:39.608Z,7.00
2019-02-08T03:48:08.510Z,7.00
2019-02-08T03:50:37.068Z,7.00
2019-02-08T03:53:06.005Z,7.00
2019-02-08T03:55:34.586Z,7.00
2019-02-08T03:58:03.195Z,7.10
2019-02-08T04:00:35.549Z,7.10
2019-02-08T04:03:04.181Z,7.10
2019-02-08T04:05:32.828Z,7.10
2019-02-08T04:08:01.438Z,7.10
2019-02-08T04:10:29.995Z,7.10
2019-02-08T04:12:58.602Z,7.10
2019-02-08T04:15:27.466Z,7.10
2019-02-08T04:17:56.080Z,7.10
2019-02-08T04:20:25.921Z,7.10
2019-02-08T04:22:54.958Z,7.10
2019-02-08T04:25:23.555Z,7.10
2019-02-08T04:27:52.156Z,7.10
2019-02-08T04:30:28.153Z,7.10
2019-02-08T04:32:56.816Z,7.10
2019-02-08T04:35:25.398Z,7.10
2019-02-08T04:37:53.977Z,7.10
2019-02-08T04:40:22.682Z,7.10
2019-02-08T04:42:51.294Z,7.10
2019-02-08T04:45:19.904Z,7.10
2019-02-08T04:47:48.724Z,7.10
2019-02-08T04:50:19.328Z,7.10
2019-02-08T04:52:48.421Z,7.20
2019-02-08T04:55:16.980Z,7.20
2019-02-08T04:57:45.568Z,7.20
2019-02-08T05:00:22.771Z,7.10
2019-02-08T05:02:51.343Z,7.20
2019-02-08T05:05:19.913Z,7.20
2019-02-08T05:07:48.776Z,7.20
2019-02-08T05:10:19.496Z,7.10
2019-02-08T05:12:48.352Z,7.30
2019-02-08T05:15:17.233Z,7.20
2019-02-08T05:17:45.821Z,7.20
2019-02-08T05:20:16.088Z,7.20
2019-02-08T05:22:44.822Z,7.30
2019-02-08T05:25:13.808Z,7.20
2019-02-08T05:27:42.436Z,7.30
2019-02-08T05:30:14.348Z,7.30
2019-02-08T05:32:42.919Z,7.30
2019-02-08T05:35:11.496Z,7.30
2019-02-08T05:37:40.117Z,7.30
2019-02-08T05:40:10.477Z,7.30
2019-02-08T05:42:39.053Z,7.30
2019-02-08T05:45:09.760Z,7.30
2019-02-08T05:47:38.359Z,7.30
2019-02-08T05:50:10.414Z,7.30
2019-02-08T05:52:38.995Z,7.30
2019-02-08T05:55:08.426Z,7.30
2019-02-08T05:57:37.017Z,7.30
2019-02-08T06:00:11.589Z,7.30
2019-02-08T06:02:40.318Z,7.40
2019-02-08T06:05:10.385Z,7.40
2019-02-08T06:07:38.959Z,7.40
2019-02-08T06:10:09.168Z,7.30
2019-02-08T06:12:37.751Z,7.40
2019-02-08T06:15:06.747Z,7.40
2019-02-08T06:17:35.316Z,7.40
2019-02-08T06:20:05.256Z,7.40
2019-02-08T06:22:33.888Z,7.40
2019-02-08T06:25:04.266Z,7.50
2019-02-08T06:27:32.813Z,7.50
2019-02-08T06:30:01.401Z,7.50
2019-02-08T06:32:30.008Z,7.50
2019-02-08T06:34:58.880Z,7.50
2019-02-08T06:37:27.495Z,7.50
2019-02-08T06:39:56.107Z,7.50
2019-02-08T06:42:24.719Z,7.50
2019-02-08T06:44:53.297Z,7.60
2019-02-08T06:47:21.875Z,7.60
2019-02-08T06:49:50.571Z,7.60
2019-02-08T06:52:19.171Z,7.50
2019-02-08T06:54:47.999Z,7.60
2019-02-08T06:57:26.029Z,7.60
2019-02-08T07:00:09.162Z,7.60
2019-02-08T07:02:56.857Z,7.60
2019-02-08T07:05:47.567Z,7.60
2019-02-08T07:08:28.600Z,7.60
2019-02-08T07:11:27.811Z,7.60
2019-02-08T07:14:09.617Z,7.60
2019-02-08T07:16:50.880Z,7.60
2019-02-08T07:19:38.579Z,7.60
2019-02-08T07:22:29.507Z,7.60
2019-02-08T07:25:18.712Z,7.60
2019-02-08T07:28:05.676Z,7.70
2019-02-08T07:30:54.449Z,7.60
2019-02-08T07:33:31.307Z,7.60
2019-02-08T07:36:11.081Z,7.70
2019-02-08T07:39:00.115Z,7.60
2019-02-08T07:41:50.665Z,7.60
2019-02-08T07:44:23.551Z,7.60
2019-02-08T07:47:14.164Z,7.60
2019-02-08T07:50:04.903Z,7.70
2019-02-08T07:52:51.259Z,7.70
2019-02-08T07:55:57.365Z,7.70
2019-02-08T07:58:37.864Z,7.70
2019-02-08T08:01:16.756Z,7.70
2019-02-08T08:04:04.427Z,7.70
2019-02-08T08:06:54.916Z,7.70
2019-02-08T08:09:34.615Z,7.70
2019-02-08T08:12:28.536Z,7.70
2019-02-08T08:15:22.141Z,7.70
2019-02-08T08:17:57.995Z,7.70
2019-02-08T08:20:44.993Z,7.80
2019-02-08T08:23:37.963Z,7.80
2019-02-08T08:26:36.420Z,7.80
2019-02-08T08:29:11.067Z,7.80
2019-02-08T08:31:50.782Z,7.80
2019-02-08T08:34:40.744Z,7.80
2019-02-08T08:37:38.421Z,7.90
2019-02-08T08:40:32.445Z,7.90
2019-02-08T08:43:24.787Z,7.90
2019-02-08T08:46:39.952Z,8.00
2019-02-08T08:49:50.596Z,8.00
2019-02-08T08:52:45.491Z,8.00
2019-02-08T08:56:01.679Z,8.10
2019-02-08T08:58:50.415Z,8.10
2019-02-08T09:01:50.848Z,8.10
2019-02-08T09:04:58.084Z,8.20
2019-02-08T09:08:14.284Z,8.20
2019-02-08T09:11:27.690Z,8.30
2019-02-08T09:14:25.995Z,8.30
2019-02-08T09:17:44.183Z,8.40
2019-02-08T09:20:50.347Z,8.40
2019-02-08T09:23:36.408Z,8.40
2019-02-08T09:26:34.814Z,8.40
2019-02-08T09:29:40.741Z,8.40
2019-02-08T09:32:23.719Z,8.40
2019-02-08T09:35:45.832Z,8.40
2019-02-08T09:39:05.291Z,8.40
2019-02-08T09:42:10.300Z,8.40
2019-02-08T09:45:23.247Z,8.40
2019-02-08T09:48:32.133Z,8.50
2019-02-08T09:51:50.686Z,8.50
2019-02-08T09:54:53.067Z,8.50
2019-02-08T09:58:21.619Z,8.50
2019-02-08T10:01:47.423Z,8.60
2019-02-08T10:05:05.996Z,8.60
2019-02-08T10:08:25.272Z,8.60
2019-02-08T10:11:29.610Z,8.60
2019-02-08T10:14:32.809Z,8.60
2019-02-08T10:18:00.547Z,8.60
2019-02-08T10:21:00.444Z,8.70
2019-02-08T10:24:18.267Z,8.80
2019-02-08T10:27:33.611Z,8.80
2019-02-08T10:30:59.218Z,8.80
2019-02-08T10:34:04.023Z,8.80
2019-02-08T10:37:18.107Z,8.80
2019-02-08T10:40:23.329Z,8.70
2019-02-08T10:43:28.529Z,8.80
2019-02-08T10:46:33.356Z,8.80
2019-02-08T10:49:50.840Z,8.80
2019-02-08T10:52:58.448Z,8.90
2019-02-08T10:56:19.812Z,8.90
2019-02-08T10:59:16.766Z,8.90
2019-02-08T11:02:21.700Z,8.90
2019-02-08T11:05:45.759Z,9.00
2019-02-08T11:08:45.115Z,9.00
2019-02-08T11:11:56.566Z,9.00
2019-02-08T11:15:34.335Z,9.10
2019-02-08T11:19:15.304Z,9.10
2019-02-08T11:21:43.959Z,9.20
2019-02-08T11:24:12.588Z,9.20
2019-02-08T11:26:41.240Z,9.20
2019-02-08T11:29:09.807Z,9.20
2019-02-08T11:31:38.396Z,9.20
2019-02-08T11:34:07.089Z,9.20
2019-02-08T11:36:35.719Z,9.20
2019-02-08T11:39:10.219Z,9.20
2019-02-08T11:41:39.169Z,9.20
2019-02-08T11:44:07.763Z,9.20
2019-02-08T11:46:36.368Z,9.20
2019-02-08T11:49:05.511Z,9.20
2019-02-08T11:51:34.168Z,9.20
2019-02-08T11:54:02.727Z,9.20
2019-02-08T11:56:31.328Z,9.30
2019-02-08T11:58:59.937Z,9.40
2019-02-08T12:01:31.133Z,9.40
2019-02-08T12:03:59.715Z,9.40
2019-02-08T12:06:30.433Z,9.40
2019-02-08T12:08:59.027Z,9.40
2019-02-08T12:11:27.731Z,9.50
2019-02-08T12:13:56.320Z,9.50
2019-02-08T12:16:51.817Z,9.50
2019-02-08T12:19:20.480Z,9.50
2019-02-08T12:21:49.371Z,9.60
2019-02-08T12:24:17.964Z,9.60
2019-02-08T12:26:46.772Z,9.60
2019-02-08T12:29:15.651Z,9.60
2019-02-08T12:31:44.224Z,9.60
2019-02-08T12:34:12.808Z,9.60
2019-02-08T12:36:41.410Z,9.60
2019-02-08T12:39:11.508Z,9.60
2019-02-08T12:41:40.771Z,9.60
2019-02-08T12:44:09.383Z,9.70
2019-02-08T12:46:37.996Z,9.70
2019-02-08T12:49:06.599Z,9.70
2019-02-08T12:51:35.195Z,9.70
2019-02-08T12:54:03.819Z,9.70
2019-02-08T12:56:32.431Z,9.70
2019-02-08T12:59:01.061Z,9.70
2019-02-08T13:01:29.646Z,9.80
2019-02-08T13:03:58.222Z,9.80
2019-02-08T13:06:26.853Z,9.90
2019-02-08T13:08:55.454Z,9.90
2019-02-08T13:11:24.102Z,10.00
2019-02-08T13:13:52.677Z,10.00
2019-02-08T13:16:21.272Z,10.10
2019-02-08T13:18:49.867Z,10.10
2019-02-08T13:21:18.483Z,10.10
2019-02-08T13:23:47.184Z,10.10
2019-02-08T13:26:15.773Z,10.10
2019-02-08T13:28:44.403Z,10.10
2019-02-08T13:31:12.971Z,10.20
2019-02-08T13:33:41.648Z,10.20
2019-02-08T13:36:13.612Z,10.20
2019-02-08T13:38:42.219Z,10.20
2019-02-08T13:41:10.798Z,10.20
2019-02-08T13:43:39.463Z,10.20
2019-02-08T13:46:08.076Z,10.20
2019-02-08T13:48:36.698Z,10.20
2019-02-08T13:51:05.696Z,10.10
2019-02-08T13:53:34.305Z,10.10
2019-02-08T13:56:02.907Z,10.10
2019-02-08T13:58:31.498Z,10.10
2019-02-08T14:01:00.128Z,10.10
2019-02-08T14:03:28.753Z,10.10
2019-02-08T14:05:57.351Z,10.10
2019-02-08T14:08:25.942Z,10.00
2019-02-08T14:10:54.547Z,10.10
2019-02-08T14:13:23.123Z,10.10
2019-02-08T14:15:51.727Z,10.10
2019-02-08T14:18:20.590Z,10.20
2019-02-08T14:20:49.464Z,10.20
2019-02-08T14:23:18.037Z,10.20
2019-02-08T14:25:48.981Z,10.20
2019-02-08T14:28:17.633Z,10.10
2019-02-08T14:30:46.379Z,10.20
2019-02-08T14:33:15.033Z,10.10
2019-02-08T14:35:43.677Z,10.10
2019-02-08T14:38:15.679Z,10.10
2019-02-08T14:40:44.254Z,10.10
2019-02-08T14:43:13.043Z,10.10
2019-02-08T14:45:41.627Z,10.10
2019-02-08T14:48:10.227Z,10.10
2019-02-08T14:50:38.804Z,10.20
2019-02-08T14:53:07.397Z,10.10
2019-02-08T14:55:35.993Z,10.20
2019-02-08T14:58:06.024Z,10.10
2019-02-08T15:00:53.943Z,10.10
2019-02-08T15:03:22.572Z,10.10
2019-02-08T15:05:51.156Z,10.00
2019-02-08T15:08:19.997Z,10.10
2019-02-08T15:10:49.820Z,10.10
2019-02-08T15:13:18.407Z,10.00
2019-02-08T15:15:47.111Z,10.00
2019-02-08T15:18:16.003Z,10.00
2019-02-08T15:20:44.673Z,10.10
2019-02-08T15:23:13.261Z,10.10
2019-02-08T15:25:41.876Z,10.00
2019-02-08T15:28:10.507Z,10.00
2019-02-08T15:30:39.165Z,10.10
2019-02-08T15:33:07.747Z,10.10
2019-02-08T15:35:36.329Z,10.00
2019-02-08T15:38:05.196Z,10.00
2019-02-08T15:40:39.407Z,10.00
2019-02-08T15:43:08.591Z,10.00
2019-02-08T15:45:37.533Z,10.00
2019-02-08T15:48:06.246Z,10.00
2019-02-08T15:50:34.888Z,10.00
2019-02-08T15:53:03.820Z,10.00
2019-02-08T15:55:34.679Z,10.00
2019-02-08T15:58:03.239Z,10.00
2019-02-08T16:00:32.136Z,10.00
2019-02-08T16:03:00.722Z,9.90
2019-02-08T16:05:30.351Z,9.90
2019-02-08T16:07:58.942Z,10.00
2019-02-08T16:10:27.545Z,10.00
2019-02-08T16:12:56.136Z,10.00
2019-02-08T16:15:26.396Z,10.00
2019-02-08T16:17:54.975Z,10.00
2019-02-08T16:20:25.146Z,10.00
2019-02-08T16:22:53.837Z,10.00
2019-02-08T16:25:23.769Z,10.00
2019-02-08T16:27:52.351Z,10.00
2019-02-08T16:30:22.952Z,10.00
2019-02-08T16:32:51.535Z,10.00
2019-02-08T16:35:20.635Z,10.00
2019-02-08T16:37:52.640Z,10.00
2019-02-08T16:40:22.932Z,10.00
2019-02-08T16:42:51.511Z,10.10
2019-02-08T16:45:25.346Z,10.00
2019-02-08T16:47:54.185Z,10.10
2019-02-08T16:50:24.180Z,10.00
2019-02-08T16:52:52.759Z,10.10
2019-02-08T16:55:21.708Z,10.10
2019-02-08T16:57:50.396Z,10.00
2019-02-08T17:00:21.612Z,10.00
2019-02-08T17:02:50.275Z,10.00
2019-02-08T17:05:19.430Z,10.00
2019-02-08T17:07:49.516Z,10.00
2019-02-08T17:10:18.244Z,10.00
2019-02-08T17:12:46.964Z,10.00
2019-02-08T17:15:18.349Z,10.00
2019-02-08T17:17:47.011Z,10.00
2019-02-08T17:20:21.327Z,10.00
2019-02-08T17:22:50.111Z,10.00
2019-02-08T17:25:18.684Z,10.00
2019-02-08T17:27:55.241Z,9.90
2019-02-08T17:30:19.109Z,9.90
2019-02-08T17:32:47.880Z,9.80
2019-02-08T17:35:17.396Z,9.80
2019-02-08T17:37:48.273Z,9.80
2019-02-08T17:40:18.589Z,9.70
2019-02-08T17:42:47.371Z,9.80
2019-02-08T17:45:17.334Z,9.80
2019-02-08T17:47:45.951Z,9.80
2019-02-08T17:50:16.804Z,9.80
2019-02-08T17:52:45.372Z,9.80
2019-02-08T17:55:14.879Z,9.80
2019-02-08T17:57:43.455Z,9.80
2019-02-08T18:00:26.005Z,9.70
2019-02-08T18:02:54.600Z,9.80
2019-02-08T18:05:23.180Z,9.80
2019-02-08T18:07:51.735Z,9.70
2019-02-08T18:10:20.536Z,9.80
2019-02-08T18:12:49.296Z,9.80
2019-02-08T18:15:19.748Z,9.70
2019-02-08T18:17:48.540Z,9.80
2019-02-08T18:20:20.562Z,9.80
2019-02-08T18:22:49.284Z,9.80
2019-02-08T18:25:18.243Z,9.80
2019-02-08T18:27:50.212Z,9.80
2019-02-08T18:30:20.051Z,9.70
2019-02-08T18:32:49.045Z,9.80
2019-02-08T18:35:17.667Z,9.80
2019-02-08T18:37:46.717Z,9.80
2019-02-08T18:40:16.687Z,9.80
2019-02-08T18:42:45.317Z,9.70
2019-02-08T18:45:16.764Z,9.70
2019-02-08T18:47:45.315Z,9.70
2019-02-08T18:50:19.984Z,9.70
2019-02-08T18:52:48.764Z,9.70
2019-02-08T18:55:17.324Z,9.80
2019-02-08T18:57:45.907Z,9.70
2019-02-08T19:00:17.653Z,9.70
2019-02-08T19:02:46.385Z,9.70
2019-02-08T19:05:15.156Z,9.70
2019-02-08T19:07:43.719Z,9.70
2019-02-08T19:10:14.097Z,9.70
2019-02-08T19:12:42.688Z,9.70
2019-02-08T19:15:12.426Z,9.70
2019-02-08T19:17:40.998Z,9.70
2019-02-08T19:20:10.919Z,9.70
2019-02-08T19:22:39.847Z,9.70
2019-02-08T19:25:11.766Z,9.70
2019-02-08T19:27:40.337Z,9.70
2019-02-08T19:30:13.040Z,9.70
2019-02-08T19:32:41.663Z,9.70
2019-02-08T19:35:10.279Z,9.70
2019-02-08T19:37:38.883Z,9.70
2019-02-08T19:40:09.455Z,9.70
2019-02-08T19:42:38.283Z,9.70
2019-02-08T19:45:08.163Z,9.70
2019-02-08T19:47:36.746Z,9.70
2019-02-08T19:50:06.604Z,9.80
2019-02-08T19:52:35.215Z,9.80
2019-02-08T19:55:05.185Z,9.80
2019-02-08T19:57:33.771Z,9.80
2019-02-08T20:00:02.344Z,9.70
2019-02-08T20:02:31.304Z,9.70
2019-02-08T20:04:59.888Z,9.70
2019-02-08T20:07:28.482Z,9.60
2019-02-08T20:09:57.066Z,9.60
2019-02-08T20:12:25.648Z,9.60
2019-02-08T20:14:54.557Z,9.60
2019-02-08T20:17:23.141Z,9.60
2019-02-08T20:19:51.729Z,9.60
2019-02-08T20:22:20.319Z,9.60
2019-02-08T20:24:49.432Z,9.60
2019-02-08T20:27:18.026Z,9.60
2019-02-08T20:29:47.008Z,9.60
2019-02-08T20:32:15.933Z,9.60
2019-02-08T20:34:44.890Z,9.70
2019-02-08T20:37:13.494Z,9.70
2019-02-08T20:39:42.209Z,9.70
2019-02-08T20:42:10.789Z,9.70
2019-02-08T20:44:39.366Z,9.70
2019-02-08T20:47:07.948Z,9.80
2019-02-08T20:49:36.549Z,9.80
2019-02-08T20:52:05.163Z,9.80
2019-02-08T20:54:33.853Z,9.80
2019-02-08T20:57:02.424Z,9.80
2019-02-08T20:59:30.999Z,9.80
2019-02-08T21:01:59.664Z,9.80
2019-02-08T21:04:28.581Z,9.90
2019-02-08T21:06:57.175Z,9.90
2019-02-08T21:09:25.751Z,9.90
2019-02-08T21:11:54.345Z,9.90
2019-02-08T21:14:22.916Z,9.80
2019-02-08T21:16:51.479Z,9.80
2019-02-08T21:19:20.127Z,9.80
2019-02-08T21:21:48.811Z,9.80
2019-02-08T21:24:17.418Z,9.80
2019-02-08T21:26:46.001Z,9.80
2019-02-08T21:29:14.682Z,9.80
2019-02-08T21:31:43.296Z,9.80
2019-02-08T21:34:11.881Z,9.80
2019-02-08T21:36:40.471Z,9.80
2019-02-08T21:39:09.158Z,9.80
2019-02-08T21:41:37.732Z,9.80
2019-02-08T21:44:06.345Z,9.80
2019-02-08T21:46:35.207Z,9.80
2019-02-08T21:49:03.804Z,9.80
2019-02-08T21:51:32.468Z,9.70
2019-02-08T21:54:01.100Z,9.80
2019-02-08T21:56:29.665Z,9.80
2019-02-08T21:59:05.753Z,9.80
2019-02-08T22:01:28.564Z,9.80
2019-02-08T22:03:57.147Z,9.80
2019-02-08T22:06:25.746Z,9.80
2019-02-08T22:08:54.334Z,9.80
2019-02-08T22:11:22.909Z,9.80
2019-02-08T22:13:51.491Z,9.80
2019-02-08T22:16:20.065Z,9.80
2019-02-08T22:18:48.826Z,9.80
2019-02-08T22:21:17.404Z,9.90
2019-02-08T22:23:46.007Z,9.80
2019-02-08T22:26:14.611Z,9.80
2019-02-08T22:28:43.212Z,9.80
2019-02-08T22:31:11.808Z,9.80
2019-02-08T22:33:40.408Z,9.80
2019-02-08T22:36:08.963Z,9.80
2019-02-08T22:38:37.538Z,9.80
2019-02-08T22:41:06.121Z,9.70
2019-02-08T22:43:34.692Z,9.70
2019-02-08T22:46:03.346Z,9.70
2019-02-08T22:48:51.260Z,9.70
2019-02-08T22:51:19.835Z,9.70
2019-02-08T22:53:48.624Z,9.70
2019-02-08T22:56:17.208Z,9.70
2019-02-08T22:58:45.782Z,9.70
2019-02-08T23:01:33.213Z,9.60
2019-02-08T23:04:03.309Z,9.60
2019-02-08T23:06:31.987Z,9.60
2019-02-08T23:09:00.659Z,9.60
2019-02-08T23:11:29.361Z,9.60
2019-02-08T23:13:57.963Z,9.60
2019-02-08T23:16:26.552Z,9.60
2019-02-08T23:18:55.123Z,9.60
2019-02-08T23:21:23.696Z,9.70
2019-02-08T23:23:52.265Z,9.70
2019-02-08T23:26:20.852Z,9.70
2019-02-08T23:28:49.648Z,9.70
2019-02-08T23:31:18.220Z,9.60
2019-02-08T23:33:46.935Z,9.50
2019-02-08T23:36:15.520Z,9.40
2019-02-08T23:38:44.105Z,9.40
2019-02-08T23:41:12.663Z,9.30
2019-02-08T23:43:41.246Z,9.20
2019-02-08T23:46:09.814Z,9.20
2019-02-08T23:48:38.392Z,9.20
2019-02-08T23:51:06.987Z,9.10
2019-02-08T23:53:35.923Z,9.00
2019-02-08T23:56:04.543Z,9.00
2019-02-08T23:58:33.160Z,9.00
